sensor_id;sensor_type;location;lat;lon;timestamp;temperature;humidity
66629;DHT22;53532;53.084;6.352;2022-08-01T00:00:32;18.60;99.90
66629;DHT22;53532;53.084;6.352;2022-08-01T00:02:57;18.60;99.90
66629;DHT22;53532;53.084;6.352;2022-08-01T00:05:23;18.50;99.90
66629;DHT22;53532;53.084;6.352;2022-08-01T00:07:49;18.60;99.90
66629;DHT22;53532;53.084;6.352;2022-08-01T00:10:16;18.60;99.90
66629;DHT22;53532;53.084;6.352;2022-08-01T00:12:44;18.60;99.90
66629;DHT22;53532;53.084;6.352;2022-08-01T00:15:12;18.60;99.90
66629;DHT22;53532;53.084;6.352;2022-08-01T00:17:40;18.50;99.90
66629;DHT22;53532;53.084;6.352;2022-08-01T00:20:08;18.60;99.90
66629;DHT22;53532;53.084;6.352;2022-08-01T00:22:34;18.50;99.90
66629;DHT22;53532;53.084;6.352;2022-08-01T00:25:00;18.50;99.90
66629;DHT22;53532;53.084;6.352;2022-08-01T00:27:27;18.50;99.90
66629;DHT22;53532;53.084;6.352;2022-08-01T00:29:53;18.50;99.90
66629;DHT22;53532;53.084;6.352;2022-08-01T00:32:18;18.50;99.90
66629;DHT22;53532;53.084;6.352;2022-08-01T00:34:46;18.40;99.90
66629;DHT22;53532;53.084;6.352;2022-08-01T00:37:12;18.50;99.90
66629;DHT22;53532;53.084;6.352;2022-08-01T00:39:37;18.40;99.90
66629;DHT22;53532;53.084;6.352;2022-08-01T00:42:06;18.40;99.90
66629;DHT22;53532;53.084;6.352;2022-08-01T00:44:33;18.30;99.90
66629;DHT22;53532;53.084;6.352;2022-08-01T00:46:59;18.30;99.90
66629;DHT22;53532;53.084;6.352;2022-08-01T00:49:24;18.30;99.90
66629;DHT22;53532;53.084;6.352;2022-08-01T00:51:52;18.30;99.90
66629;DHT22;53532;53.084;6.352;2022-08-01T00:54:18;18.30;99.90
66629;DHT22;53532;53.084;6.352;2022-08-01T00:56:44;18.30;99.90
66629;DHT22;53532;53.084;6.352;2022-08-01T00:59:11;18.30;99.90
66629;DHT22;53532;53.084;6.352;2022-08-01T01:01:37;18.30;99.90
66629;DHT22;53532;53.084;6.352;2022-08-01T01:04:03;18.30;99.90
66629;DHT22;53532;53.084;6.352;2022-08-01T01:06:40;18.20;99.90
66629;DHT22;53532;53.084;6.352;2022-08-01T01:09:17;18.20;99.90
66629;DHT22;53532;53.084;6.352;2022-08-01T01:11:57;18.20;99.90
66629;DHT22;53532;53.084;6.352;2022-08-01T01:14:32;18.20;99.90
66629;DHT22;53532;53.084;6.352;2022-08-01T01:17:00;18.20;99.90
66629;DHT22;53532;53.084;6.352;2022-08-01T01:19:30;18.20;99.90
66629;DHT22;53532;53.084;6.352;2022-08-01T01:22:18;18.20;99.90
66629;DHT22;53532;53.084;6.352;2022-08-01T01:24:54;18.20;99.90
66629;DHT22;53532;53.084;6.352;2022-08-01T01:27:28;18.20;99.90
66629;DHT22;53532;53.084;6.352;2022-08-01T01:30:01;18.20;99.90
66629;DHT22;53532;53.084;6.352;2022-08-01T01:32:31;18.20;99.90
66629;DHT22;53532;53.084;6.352;2022-08-01T01:35:01;18.20;99.90
66629;DHT22;53532;53.084;6.352;2022-08-01T01:37:29;18.20;99.90
66629;DHT22;53532;53.084;6.352;2022-08-01T01:39:58;18.20;99.90
66629;DHT22;53532;53.084;6.352;2022-08-01T01:42:25;18.20;99.90
66629;DHT22;53532;53.084;6.352;2022-08-01T01:44:52;18.10;99.90
66629;DHT22;53532;53.084;6.352;2022-08-01T01:47:22;18.10;99.90
66629;DHT22;53532;53.084;6.352;2022-08-01T01:49:49;18.20;99.90
66629;DHT22;53532;53.084;6.352;2022-08-01T01:52:16;18.10;99.90
66629;DHT22;53532;53.084;6.352;2022-08-01T01:54:48;18.10;99.90
66629;DHT22;53532;53.084;6.352;2022-08-01T01:57:16;18.10;99.90
66629;DHT22;53532;53.084;6.352;2022-08-01T01:59:44;18.10;99.90
66629;DHT22;53532;53.084;6.352;2022-08-01T02:02:12;18.00;99.90
66629;DHT22;53532;53.084;6.352;2022-08-01T02:04:41;18.00;99.90
66629;DHT22;53532;53.084;6.352;2022-08-01T02:07:09;18.00;99.90
66629;DHT22;53532;53.084;6.352;2022-08-01T02:09:37;17.90;99.90
66629;DHT22;53532;53.084;6.352;2022-08-01T02:12:05;17.90;99.90
66629;DHT22;53532;53.084;6.352;2022-08-01T02:14:33;17.80;99.90
66629;DHT22;53532;53.084;6.352;2022-08-01T02:17:00;17.80;99.90
66629;DHT22;53532;53.084;6.352;2022-08-01T02:19:29;17.80;99.90
66629;DHT22;53532;53.084;6.352;2022-08-01T02:22:01;17.80;99.90
66629;DHT22;53532;53.084;6.352;2022-08-01T02:24:34;17.80;99.90
66629;DHT22;53532;53.084;6.352;2022-08-01T02:29:50;17.70;99.90
66629;DHT22;53532;53.084;6.352;2022-08-01T02:32:24;17.70;99.90
66629;DHT22;53532;53.084;6.352;2022-08-01T02:34:51;17.70;99.90
66629;DHT22;53532;53.084;6.352;2022-08-01T02:37:20;17.70;99.90
66629;DHT22;53532;53.084;6.352;2022-08-01T02:39:50;17.70;99.90
66629;DHT22;53532;53.084;6.352;2022-08-01T02:42:18;17.70;99.90
66629;DHT22;53532;53.084;6.352;2022-08-01T02:44:45;17.70;99.90
66629;DHT22;53532;53.084;6.352;2022-08-01T02:47:12;17.70;99.90
66629;DHT22;53532;53.084;6.352;2022-08-01T02:49:42;17.60;99.90
66629;DHT22;53532;53.084;6.352;2022-08-01T02:52:12;17.70;99.90
66629;DHT22;53532;53.084;6.352;2022-08-01T02:54:40;17.70;99.90
66629;DHT22;53532;53.084;6.352;2022-08-01T02:57:08;17.60;99.90
66629;DHT22;53532;53.084;6.352;2022-08-01T02:59:36;17.60;99.90
66629;DHT22;53532;53.084;6.352;2022-08-01T03:02:04;17.60;99.90
66629;DHT22;53532;53.084;6.352;2022-08-01T03:04:33;17.60;99.90
66629;DHT22;53532;53.084;6.352;2022-08-01T03:07:03;17.60;99.90
66629;DHT22;53532;53.084;6.352;2022-08-01T03:09:33;17.50;99.90
66629;DHT22;53532;53.084;6.352;2022-08-01T03:12:03;17.50;99.90
66629;DHT22;53532;53.084;6.352;2022-08-01T03:14:31;17.40;99.90
66629;DHT22;53532;53.084;6.352;2022-08-01T03:17:01;17.40;99.90
66629;DHT22;53532;53.084;6.352;2022-08-01T03:19:27;17.40;99.90
66629;DHT22;53532;53.084;6.352;2022-08-01T03:21:57;17.40;99.90
66629;DHT22;53532;53.084;6.352;2022-08-01T03:24:26;17.40;99.90
66629;DHT22;53532;53.084;6.352;2022-08-01T03:26:53;17.30;99.90
66629;DHT22;53532;53.084;6.352;2022-08-01T03:29:25;17.30;99.90
66629;DHT22;53532;53.084;6.352;2022-08-01T03:31:51;17.30;99.90
66629;DHT22;53532;53.084;6.352;2022-08-01T03:34:18;17.30;99.90
66629;DHT22;53532;53.084;6.352;2022-08-01T03:36:48;17.30;99.90
66629;DHT22;53532;53.084;6.352;2022-08-01T03:39:17;17.30;99.90
66629;DHT22;53532;53.084;6.352;2022-08-01T03:41:49;17.30;99.90
66629;DHT22;53532;53.084;6.352;2022-08-01T03:44:19;17.30;99.90
66629;DHT22;53532;53.084;6.352;2022-08-01T03:46:49;17.20;99.90
66629;DHT22;53532;53.084;6.352;2022-08-01T03:49:19;17.20;99.90
66629;DHT22;53532;53.084;6.352;2022-08-01T03:51:48;17.20;99.90
66629;DHT22;53532;53.084;6.352;2022-08-01T03:54:16;17.20;99.90
66629;DHT22;53532;53.084;6.352;2022-08-01T03:56:43;17.20;99.90
66629;DHT22;53532;53.084;6.352;2022-08-01T03:59:12;17.20;99.90
66629;DHT22;53532;53.084;6.352;2022-08-01T04:01:39;17.20;99.90
66629;DHT22;53532;53.084;6.352;2022-08-01T04:04:07;17.20;99.90
66629;DHT22;53532;53.084;6.352;2022-08-01T04:06:33;17.20;99.90
66629;DHT22;53532;53.084;6.352;2022-08-01T04:08:59;17.20;99.90
66629;DHT22;53532;53.084;6.352;2022-08-01T04:11:26;17.10;99.90
66629;DHT22;53532;53.084;6.352;2022-08-01T04:13:53;17.10;99.90
66629;DHT22;53532;53.084;6.352;2022-08-01T04:16:19;17.10;99.90
66629;DHT22;53532;53.084;6.352;2022-08-01T04:18:46;17.10;99.90
66629;DHT22;53532;53.084;6.352;2022-08-01T04:21:13;17.10;99.90
66629;DHT22;53532;53.084;6.352;2022-08-01T04:23:41;17.00;99.90
66629;DHT22;53532;53.084;6.352;2022-08-01T04:26:09;17.00;99.90
66629;DHT22;53532;53.084;6.352;2022-08-01T04:28:37;17.00;99.90
66629;DHT22;53532;53.084;6.352;2022-08-01T04:31:08;17.00;99.90
66629;DHT22;53532;53.084;6.352;2022-08-01T04:33:39;17.00;99.90
66629;DHT22;53532;53.084;6.352;2022-08-01T04:36:06;17.00;99.90
66629;DHT22;53532;53.084;6.352;2022-08-01T04:38:37;16.90;99.90
66629;DHT22;53532;53.084;6.352;2022-08-01T04:41:04;16.90;99.90
66629;DHT22;53532;53.084;6.352;2022-08-01T04:43:32;16.90;99.90
66629;DHT22;53532;53.084;6.352;2022-08-01T04:45:58;16.90;99.90
66629;DHT22;53532;53.084;6.352;2022-08-01T04:48:25;16.80;99.90
66629;DHT22;53532;53.084;6.352;2022-08-01T04:50:51;16.90;99.90
66629;DHT22;53532;53.084;6.352;2022-08-01T04:53:19;16.90;99.90
66629;DHT22;53532;53.084;6.352;2022-08-01T04:55:48;16.90;99.90
66629;DHT22;53532;53.084;6.352;2022-08-01T04:58:14;16.80;99.90
66629;DHT22;53532;53.084;6.352;2022-08-01T05:00:41;16.90;99.90
66629;DHT22;53532;53.084;6.352;2022-08-01T05:03:07;16.90;99.90
66629;DHT22;53532;53.084;6.352;2022-08-01T05:05:33;16.90;99.90
66629;DHT22;53532;53.084;6.352;2022-08-01T05:07:59;16.90;99.90
66629;DHT22;53532;53.084;6.352;2022-08-01T05:10:25;16.80;99.90
66629;DHT22;53532;53.084;6.352;2022-08-01T05:12:53;16.80;99.90
66629;DHT22;53532;53.084;6.352;2022-08-01T05:15:19;16.90;99.90
66629;DHT22;53532;53.084;6.352;2022-08-01T05:17:45;16.90;99.90
66629;DHT22;53532;53.084;6.352;2022-08-01T05:20:11;16.90;99.90
66629;DHT22;53532;53.084;6.352;2022-08-01T05:22:37;16.90;99.90
66629;DHT22;53532;53.084;6.352;2022-08-01T05:25:04;16.90;99.90
66629;DHT22;53532;53.084;6.352;2022-08-01T05:27:33;16.80;99.90
66629;DHT22;53532;53.084;6.352;2022-08-01T05:30:06;16.90;99.90
66629;DHT22;53532;53.084;6.352;2022-08-01T05:32:32;16.90;99.90
66629;DHT22;53532;53.084;6.352;2022-08-01T05:34:58;16.90;99.90
66629;DHT22;53532;53.084;6.352;2022-08-01T05:37:24;16.90;99.90
66629;DHT22;53532;53.084;6.352;2022-08-01T05:39:50;16.90;99.90
66629;DHT22;53532;53.084;6.352;2022-08-01T05:42:16;16.90;99.90
66629;DHT22;53532;53.084;6.352;2022-08-01T05:44:42;16.90;99.90
66629;DHT22;53532;53.084;6.352;2022-08-01T05:47:09;16.90;99.90
66629;DHT22;53532;53.084;6.352;2022-08-01T05:49:35;16.90;99.90
66629;DHT22;53532;53.084;6.352;2022-08-01T05:52:00;16.90;99.90
66629;DHT22;53532;53.084;6.352;2022-08-01T05:54:27;16.90;99.90
66629;DHT22;53532;53.084;6.352;2022-08-01T05:56:53;16.90;99.90
66629;DHT22;53532;53.084;6.352;2022-08-01T05:59:20;16.90;99.90
66629;DHT22;53532;53.084;6.352;2022-08-01T06:01:46;16.90;99.90
66629;DHT22;53532;53.084;6.352;2022-08-01T06:04:13;16.90;99.90
66629;DHT22;53532;53.084;6.352;2022-08-01T06:06:39;16.90;99.90
66629;DHT22;53532;53.084;6.352;2022-08-01T06:09:05;17.00;99.90
66629;DHT22;53532;53.084;6.352;2022-08-01T06:11:30;17.00;99.90
66629;DHT22;53532;53.084;6.352;2022-08-01T06:13:56;17.00;99.90
66629;DHT22;53532;53.084;6.352;2022-08-01T06:16:22;17.00;99.90
66629;DHT22;53532;53.084;6.352;2022-08-01T06:18:48;17.10;99.90
66629;DHT22;53532;53.084;6.352;2022-08-01T06:21:15;17.00;99.90
66629;DHT22;53532;53.084;6.352;2022-08-01T06:23:41;17.00;99.90
66629;DHT22;53532;53.084;6.352;2022-08-01T06:26:07;17.10;99.90
66629;DHT22;53532;53.084;6.352;2022-08-01T06:28:33;17.10;99.90
66629;DHT22;53532;53.084;6.352;2022-08-01T06:30:59;17.10;99.90
66629;DHT22;53532;53.084;6.352;2022-08-01T06:33:25;17.20;99.90
66629;DHT22;53532;53.084;6.352;2022-08-01T06:35:51;17.20;99.90
66629;DHT22;53532;53.084;6.352;2022-08-01T06:38:18;17.30;99.90
66629;DHT22;53532;53.084;6.352;2022-08-01T06:40:44;17.40;99.90
66629;DHT22;53532;53.084;6.352;2022-08-01T06:43:09;17.40;99.90
66629;DHT22;53532;53.084;6.352;2022-08-01T06:45:37;17.50;99.90
66629;DHT22;53532;53.084;6.352;2022-08-01T06:48:03;17.50;99.90
66629;DHT22;53532;53.084;6.352;2022-08-01T06:50:30;17.60;99.90
66629;DHT22;53532;53.084;6.352;2022-08-01T06:52:56;17.60;99.90
66629;DHT22;53532;53.084;6.352;2022-08-01T06:55:23;17.70;99.90
66629;DHT22;53532;53.084;6.352;2022-08-01T06:57:52;17.80;99.90
66629;DHT22;53532;53.084;6.352;2022-08-01T07:00:19;17.90;99.90
66629;DHT22;53532;53.084;6.352;2022-08-01T07:02:47;17.90;99.90
66629;DHT22;53532;53.084;6.352;2022-08-01T07:05:13;18.00;99.90
66629;DHT22;53532;53.084;6.352;2022-08-01T07:07:39;18.10;99.90
66629;DHT22;53532;53.084;6.352;2022-08-01T07:10:06;18.20;99.90
66629;DHT22;53532;53.084;6.352;2022-08-01T07:12:33;18.30;99.90
66629;DHT22;53532;53.084;6.352;2022-08-01T07:14:59;18.40;99.90
66629;DHT22;53532;53.084;6.352;2022-08-01T07:17:25;18.50;99.90
66629;DHT22;53532;53.084;6.352;2022-08-01T07:19:50;18.60;99.90
66629;DHT22;53532;53.084;6.352;2022-08-01T07:22:16;18.80;99.90
66629;DHT22;53532;53.084;6.352;2022-08-01T07:24:42;18.80;99.90
66629;DHT22;53532;53.084;6.352;2022-08-01T07:27:08;18.90;99.90
66629;DHT22;53532;53.084;6.352;2022-08-01T07:29:35;18.90;99.90
66629;DHT22;53532;53.084;6.352;2022-08-01T07:32:01;19.00;99.90
66629;DHT22;53532;53.084;6.352;2022-08-01T07:34:27;19.20;99.90
66629;DHT22;53532;53.084;6.352;2022-08-01T07:36:53;19.30;99.90
66629;DHT22;53532;53.084;6.352;2022-08-01T07:39:19;19.60;99.90
66629;DHT22;53532;53.084;6.352;2022-08-01T07:41:45;19.80;99.90
66629;DHT22;53532;53.084;6.352;2022-08-01T07:44:11;19.80;99.90
66629;DHT22;53532;53.084;6.352;2022-08-01T07:46:38;19.70;99.90
66629;DHT22;53532;53.084;6.352;2022-08-01T07:49:04;19.70;99.90
66629;DHT22;53532;53.084;6.352;2022-08-01T07:51:29;19.70;99.90
66629;DHT22;53532;53.084;6.352;2022-08-01T07:53:55;19.90;99.90
66629;DHT22;53532;53.084;6.352;2022-08-01T07:56:21;20.10;99.90
66629;DHT22;53532;53.084;6.352;2022-08-01T07:58:49;20.20;99.90
66629;DHT22;53532;53.084;6.352;2022-08-01T08:01:15;20.40;99.90
66629;DHT22;53532;53.084;6.352;2022-08-01T08:03:42;20.60;99.90
66629;DHT22;53532;53.084;6.352;2022-08-01T08:06:08;20.70;99.90
66629;DHT22;53532;53.084;6.352;2022-08-01T08:08:34;20.90;99.90
66629;DHT22;53532;53.084;6.352;2022-08-01T08:11:01;21.10;99.90
66629;DHT22;53532;53.084;6.352;2022-08-01T08:13:26;21.20;99.90
66629;DHT22;53532;53.084;6.352;2022-08-01T08:15:53;21.30;99.90
66629;DHT22;53532;53.084;6.352;2022-08-01T08:18:18;21.40;99.90
66629;DHT22;53532;53.084;6.352;2022-08-01T08:20:46;21.60;99.90
66629;DHT22;53532;53.084;6.352;2022-08-01T08:23:12;21.70;99.90
66629;DHT22;53532;53.084;6.352;2022-08-01T08:25:56;21.80;99.90
66629;DHT22;53532;53.084;6.352;2022-08-01T08:28:22;21.80;99.90
66629;DHT22;53532;53.084;6.352;2022-08-01T08:30:48;21.60;99.90
66629;DHT22;53532;53.084;6.352;2022-08-01T08:33:14;21.50;99.90
66629;DHT22;53532;53.084;6.352;2022-08-01T08:35:40;21.50;99.90
66629;DHT22;53532;53.084;6.352;2022-08-01T08:38:08;21.60;99.90
66629;DHT22;53532;53.084;6.352;2022-08-01T08:40:35;21.70;99.90
66629;DHT22;53532;53.084;6.352;2022-08-01T08:43:04;21.90;99.90
66629;DHT22;53532;53.084;6.352;2022-08-01T08:45:31;21.90;99.90
66629;DHT22;53532;53.084;6.352;2022-08-01T08:47:57;21.90;99.90
66629;DHT22;53532;53.084;6.352;2022-08-01T08:50:25;22.00;99.90
66629;DHT22;53532;53.084;6.352;2022-08-01T08:52:52;22.00;99.90
66629;DHT22;53532;53.084;6.352;2022-08-01T08:55:20;21.90;99.90
66629;DHT22;53532;53.084;6.352;2022-08-01T08:57:47;21.90;99.90
66629;DHT22;53532;53.084;6.352;2022-08-01T09:00:14;21.90;99.90
66629;DHT22;53532;53.084;6.352;2022-08-01T09:02:41;22.00;99.90
66629;DHT22;53532;53.084;6.352;2022-08-01T09:05:08;22.00;99.90
66629;DHT22;53532;53.084;6.352;2022-08-01T09:07:34;22.20;99.90
66629;DHT22;53532;53.084;6.352;2022-08-01T09:10:00;22.10;99.90
66629;DHT22;53532;53.084;6.352;2022-08-01T09:12:27;22.10;99.90
66629;DHT22;53532;53.084;6.352;2022-08-01T09:14:53;22.20;99.90
66629;DHT22;53532;53.084;6.352;2022-08-01T09:17:19;22.20;99.90
66629;DHT22;53532;53.084;6.352;2022-08-01T09:19:47;22.20;99.90
66629;DHT22;53532;53.084;6.352;2022-08-01T09:22:16;22.10;99.90
66629;DHT22;53532;53.084;6.352;2022-08-01T09:24:57;22.10;99.90
66629;DHT22;53532;53.084;6.352;2022-08-01T09:27:23;22.10;99.90
66629;DHT22;53532;53.084;6.352;2022-08-01T09:29:53;22.10;99.90
66629;DHT22;53532;53.084;6.352;2022-08-01T09:32:19;22.00;99.90
66629;DHT22;53532;53.084;6.352;2022-08-01T09:34:44;22.00;99.90
66629;DHT22;53532;53.084;6.352;2022-08-01T09:37:12;22.10;99.90
66629;DHT22;53532;53.084;6.352;2022-08-01T09:39:39;22.10;99.10
66629;DHT22;53532;53.084;6.352;2022-08-01T09:42:22;22.10;93.50
66629;DHT22;53532;53.084;6.352;2022-08-01T09:44:48;22.10;96.70
66629;DHT22;53532;53.084;6.352;2022-08-01T09:47:18;22.20;99.90
66629;DHT22;53532;53.084;6.352;2022-08-01T09:49:53;22.30;93.60
66629;DHT22;53532;53.084;6.352;2022-08-01T09:52:21;22.20;93.20
66629;DHT22;53532;53.084;6.352;2022-08-01T09:54:52;22.10;89.40
66629;DHT22;53532;53.084;6.352;2022-08-01T09:57:19;22.20;94.90
66629;DHT22;53532;53.084;6.352;2022-08-01T09:59:47;22.40;92.70
66629;DHT22;53532;53.084;6.352;2022-08-01T10:02:28;22.50;93.40
66629;DHT22;53532;53.084;6.352;2022-08-01T10:04:54;22.60;88.50
66629;DHT22;53532;53.084;6.352;2022-08-01T10:07:20;22.40;85.60
66629;DHT22;53532;53.084;6.352;2022-08-01T10:09:46;22.20;88.80
66629;DHT22;53532;53.084;6.352;2022-08-01T10:12:14;22.20;91.80
66629;DHT22;53532;53.084;6.352;2022-08-01T10:14:41;22.30;92.10
66629;DHT22;53532;53.084;6.352;2022-08-01T10:17:08;22.30;93.70
66629;DHT22;53532;53.084;6.352;2022-08-01T10:19:37;22.20;93.70
66629;DHT22;53532;53.084;6.352;2022-08-01T10:22:08;22.20;92.50
66629;DHT22;53532;53.084;6.352;2022-08-01T10:24:36;22.40;92.80
66629;DHT22;53532;53.084;6.352;2022-08-01T10:27:04;22.60;94.80
66629;DHT22;53532;53.084;6.352;2022-08-01T10:29:36;22.90;93.40
66629;DHT22;53532;53.084;6.352;2022-08-01T10:32:04;23.20;84.30
66629;DHT22;53532;53.084;6.352;2022-08-01T10:34:30;23.20;81.70
66629;DHT22;53532;53.084;6.352;2022-08-01T10:36:57;23.30;76.80
66629;DHT22;53532;53.084;6.352;2022-08-01T10:39:24;23.40;76.80
66629;DHT22;53532;53.084;6.352;2022-08-01T10:41:52;23.50;73.30
66629;DHT22;53532;53.084;6.352;2022-08-01T10:44:17;23.50;74.60
66629;DHT22;53532;53.084;6.352;2022-08-01T10:46:48;23.70;76.40
66629;DHT22;53532;53.084;6.352;2022-08-01T10:49:17;23.90;77.00
66629;DHT22;53532;53.084;6.352;2022-08-01T10:51:45;23.70;70.90
66629;DHT22;53532;53.084;6.352;2022-08-01T10:54:13;23.50;72.40
66629;DHT22;53532;53.084;6.352;2022-08-01T10:56:39;23.30;71.40
66629;DHT22;53532;53.084;6.352;2022-08-01T10:59:08;23.20;73.80
66629;DHT22;53532;53.084;6.352;2022-08-01T11:01:33;23.20;70.60
66629;DHT22;53532;53.084;6.352;2022-08-01T11:04:08;23.20;69.80
66629;DHT22;53532;53.084;6.352;2022-08-01T11:06:42;23.30;69.10
66629;DHT22;53532;53.084;6.352;2022-08-01T11:09:27;23.50;67.20
66629;DHT22;53532;53.084;6.352;2022-08-01T11:12:01;23.50;65.60
66629;DHT22;53532;53.084;6.352;2022-08-01T11:14:29;23.30;67.70
66629;DHT22;53532;53.084;6.352;2022-08-01T11:16:55;23.20;67.70
66629;DHT22;53532;53.084;6.352;2022-08-01T11:19:21;23.20;69.10
66629;DHT22;53532;53.084;6.352;2022-08-01T11:21:59;23.30;72.10
66629;DHT22;53532;53.084;6.352;2022-08-01T11:24:57;23.40;67.60
66629;DHT22;53532;53.084;6.352;2022-08-01T11:27:26;23.50;68.10
66629;DHT22;53532;53.084;6.352;2022-08-01T11:30:24;23.60;67.80
66629;DHT22;53532;53.084;6.352;2022-08-01T11:32:53;23.70;63.00
66629;DHT22;53532;53.084;6.352;2022-08-01T11:35:19;23.60;66.10
66629;DHT22;53532;53.084;6.352;2022-08-01T11:37:53;23.60;65.50
66629;DHT22;53532;53.084;6.352;2022-08-01T11:40:24;23.40;65.00
66629;DHT22;53532;53.084;6.352;2022-08-01T11:43:17;23.20;65.40
66629;DHT22;53532;53.084;6.352;2022-08-01T11:45:50;23.10;65.70
66629;DHT22;53532;53.084;6.352;2022-08-01T11:48:20;23.20;65.30
66629;DHT22;53532;53.084;6.352;2022-08-01T11:50:46;23.10;64.30
66629;DHT22;53532;53.084;6.352;2022-08-01T11:53:12;22.90;64.40
66629;DHT22;53532;53.084;6.352;2022-08-01T11:55:45;22.90;65.10
66629;DHT22;53532;53.084;6.352;2022-08-01T11:58:11;23.00;64.70
66629;DHT22;53532;53.084;6.352;2022-08-01T12:00:37;23.00;62.20
66629;DHT22;53532;53.084;6.352;2022-08-01T12:03:05;23.10;64.50
66629;DHT22;53532;53.084;6.352;2022-08-01T12:05:33;23.20;64.90
66629;DHT22;53532;53.084;6.352;2022-08-01T12:08:00;23.30;64.50
66629;DHT22;53532;53.084;6.352;2022-08-01T12:10:28;23.20;62.70
66629;DHT22;53532;53.084;6.352;2022-08-01T12:13:01;23.10;63.90
66629;DHT22;53532;53.084;6.352;2022-08-01T12:15:31;23.00;64.00
66629;DHT22;53532;53.084;6.352;2022-08-01T12:17:58;23.10;64.70
66629;DHT22;53532;53.084;6.352;2022-08-01T12:20:25;23.10;62.90
66629;DHT22;53532;53.084;6.352;2022-08-01T12:22:53;23.10;62.30
66629;DHT22;53532;53.084;6.352;2022-08-01T12:25:19;23.20;62.10
66629;DHT22;53532;53.084;6.352;2022-08-01T12:27:46;23.30;62.40
66629;DHT22;53532;53.084;6.352;2022-08-01T12:30:14;23.40;62.80
66629;DHT22;53532;53.084;6.352;2022-08-01T12:32:42;23.50;61.50
66629;DHT22;53532;53.084;6.352;2022-08-01T12:35:09;23.60;61.50
66629;DHT22;53532;53.084;6.352;2022-08-01T12:37:36;23.60;61.60
66629;DHT22;53532;53.084;6.352;2022-08-01T12:40:10;23.50;59.60
66629;DHT22;53532;53.084;6.352;2022-08-01T12:42:37;23.40;60.10
66629;DHT22;53532;53.084;6.352;2022-08-01T12:45:03;23.30;59.90
66629;DHT22;53532;53.084;6.352;2022-08-01T12:47:30;23.40;58.70
66629;DHT22;53532;53.084;6.352;2022-08-01T12:49:57;23.40;58.90
66629;DHT22;53532;53.084;6.352;2022-08-01T12:52:24;23.50;57.60
66629;DHT22;53532;53.084;6.352;2022-08-01T12:55:11;23.60;58.40
66629;DHT22;53532;53.084;6.352;2022-08-01T12:57:38;23.60;58.90
66629;DHT22;53532;53.084;6.352;2022-08-01T13:00:17;23.60;58.40
66629;DHT22;53532;53.084;6.352;2022-08-01T13:02:45;23.60;57.10
66629;DHT22;53532;53.084;6.352;2022-08-01T13:05:11;23.60;56.00
66629;DHT22;53532;53.084;6.352;2022-08-01T13:07:40;23.50;57.10
66629;DHT22;53532;53.084;6.352;2022-08-01T13:10:06;23.40;56.80
66629;DHT22;53532;53.084;6.352;2022-08-01T13:12:32;23.40;57.30
66629;DHT22;53532;53.084;6.352;2022-08-01T13:14:58;23.50;57.20
66629;DHT22;53532;53.084;6.352;2022-08-01T13:17:31;23.50;56.80
66629;DHT22;53532;53.084;6.352;2022-08-01T13:19:59;23.50;57.40
66629;DHT22;53532;53.084;6.352;2022-08-01T13:22:32;23.50;60.20
66629;DHT22;53532;53.084;6.352;2022-08-01T13:25:09;23.40;59.50
66629;DHT22;53532;53.084;6.352;2022-08-01T13:27:35;23.30;61.40
66629;DHT22;53532;53.084;6.352;2022-08-01T13:30:10;23.30;58.90
66629;DHT22;53532;53.084;6.352;2022-08-01T13:32:37;23.30;58.10
66629;DHT22;53532;53.084;6.352;2022-08-01T13:35:06;23.30;59.90
66629;DHT22;53532;53.084;6.352;2022-08-01T13:37:32;23.40;58.20
66629;DHT22;53532;53.084;6.352;2022-08-01T13:39:58;23.40;58.20
66629;DHT22;53532;53.084;6.352;2022-08-01T13:42:24;23.50;58.30
66629;DHT22;53532;53.084;6.352;2022-08-01T13:44:50;23.60;56.80
66629;DHT22;53532;53.084;6.352;2022-08-01T13:47:15;23.60;56.20
66629;DHT22;53532;53.084;6.352;2022-08-01T13:49:41;23.60;56.80
66629;DHT22;53532;53.084;6.352;2022-08-01T13:52:09;23.60;56.90
66629;DHT22;53532;53.084;6.352;2022-08-01T13:54:35;23.50;56.00
66629;DHT22;53532;53.084;6.352;2022-08-01T13:57:02;23.50;57.80
66629;DHT22;53532;53.084;6.352;2022-08-01T13:59:28;23.60;57.70
66629;DHT22;53532;53.084;6.352;2022-08-01T14:01:54;23.70;58.40
66629;DHT22;53532;53.084;6.352;2022-08-01T14:04:20;23.80;58.40
66629;DHT22;53532;53.084;6.352;2022-08-01T14:06:46;23.80;57.40
66629;DHT22;53532;53.084;6.352;2022-08-01T14:09:14;23.70;58.70
66629;DHT22;53532;53.084;6.352;2022-08-01T14:11:42;23.70;58.60
66629;DHT22;53532;53.084;6.352;2022-08-01T14:14:08;23.80;58.60
66629;DHT22;53532;53.084;6.352;2022-08-01T14:16:34;23.90;58.20
66629;DHT22;53532;53.084;6.352;2022-08-01T14:18:59;23.90;58.20
66629;DHT22;53532;53.084;6.352;2022-08-01T14:21:25;24.00;57.70
66629;DHT22;53532;53.084;6.352;2022-08-01T14:23:51;23.90;57.90
66629;DHT22;53532;53.084;6.352;2022-08-01T14:26:18;23.70;57.70
66629;DHT22;53532;53.084;6.352;2022-08-01T14:28:44;23.70;57.00
66629;DHT22;53532;53.084;6.352;2022-08-01T14:31:10;23.60;56.50
66629;DHT22;53532;53.084;6.352;2022-08-01T14:33:36;23.50;57.80
66629;DHT22;53532;53.084;6.352;2022-08-01T14:36:03;23.50;57.60
66629;DHT22;53532;53.084;6.352;2022-08-01T14:38:29;23.50;58.70
66629;DHT22;53532;53.084;6.352;2022-08-01T14:40:54;23.50;58.20
66629;DHT22;53532;53.084;6.352;2022-08-01T14:43:21;23.50;58.30
66629;DHT22;53532;53.084;6.352;2022-08-01T14:45:47;23.50;59.20
66629;DHT22;53532;53.084;6.352;2022-08-01T14:48:15;23.50;57.60
66629;DHT22;53532;53.084;6.352;2022-08-01T14:50:41;23.50;58.80
66629;DHT22;53532;53.084;6.352;2022-08-01T14:53:07;23.50;57.70
66629;DHT22;53532;53.084;6.352;2022-08-01T14:55:33;23.50;57.10
66629;DHT22;53532;53.084;6.352;2022-08-01T14:57:58;23.60;56.20
66629;DHT22;53532;53.084;6.352;2022-08-01T15:00:25;23.50;55.80
66629;DHT22;53532;53.084;6.352;2022-08-01T15:02:51;23.50;56.60
66629;DHT22;53532;53.084;6.352;2022-08-01T15:05:17;23.40;56.20
66629;DHT22;53532;53.084;6.352;2022-08-01T15:07:43;23.50;56.70
66629;DHT22;53532;53.084;6.352;2022-08-01T15:10:09;23.40;56.90
66629;DHT22;53532;53.084;6.352;2022-08-01T15:12:35;23.40;58.20
66629;DHT22;53532;53.084;6.352;2022-08-01T15:15:01;23.30;59.00
66629;DHT22;53532;53.084;6.352;2022-08-01T15:17:29;23.40;58.30
66629;DHT22;53532;53.084;6.352;2022-08-01T15:19:59;23.30;58.10
66629;DHT22;53532;53.084;6.352;2022-08-01T15:22:28;23.30;58.20
66629;DHT22;53532;53.084;6.352;2022-08-01T15:24:57;23.20;58.30
66629;DHT22;53532;53.084;6.352;2022-08-01T15:27:23;23.20;58.60
66629;DHT22;53532;53.084;6.352;2022-08-01T15:29:49;23.00;59.10
66629;DHT22;53532;53.084;6.352;2022-08-01T15:32:15;23.00;60.90
66629;DHT22;53532;53.084;6.352;2022-08-01T15:34:43;23.00;60.20
66629;DHT22;53532;53.084;6.352;2022-08-01T15:37:09;23.00;59.40